sensor_id;sensor_type;location;lat;lon;timestamp;P1;durP1;ratioP1;P2;durP2;ratioP2
56999;SDS011;42891;50.006;21.964;2024-02-23T00:02:35;8.02;;;6.72;;
56999;SDS011;42891;50.006;21.964;2024-02-23T00:06:35;9.53;;;6.70;;
56999;SDS011;42891;50.006;21.964;2024-02-23T00:10:36;9.57;;;6.70;;
56999;SDS011;42891;50.006;21.964;2024-02-23T00:14:36;8.10;;;6.40;;
56999;SDS011;42891;50.006;21.964;2024-02-23T00:18:37;9.63;;;6.97;;
56999;SDS011;42891;50.006;21.964;2024-02-23T00:22:38;7.70;;;6.90;;
56999;SDS011;42891;50.006;21.964;2024-02-23T00:26:38;8.63;;;6.63;;
56999;SDS011;42891;50.006;21.964;2024-02-23T00:30:38;7.65;;;6.78;;
56999;SDS011;42891;50.006;21.964;2024-02-23T00:34:39;8.70;;;6.68;;
56999;SDS011;42891;50.006;21.964;2024-02-23T00:38:39;8.65;;;6.60;;
56999;SDS011;42891;50.006;21.964;2024-02-23T00:42:40;8.68;;;6.65;;
56999;SDS011;42891;50.006;21.964;2024-02-23T00:46:40;9.27;;;6.47;;
56999;SDS011;42891;50.006;21.964;2024-02-23T00:50:40;7.50;;;6.07;;
56999;SDS011;42891;50.006;21.964;2024-02-23T00:54:41;7.43;;;6.57;;
56999;SDS011;42891;50.006;21.964;2024-02-23T00:58:41;8.13;;;6.40;;
56999;SDS011;42891;50.006;21.964;2024-02-23T01:02:41;6.15;;;5.05;;
56999;SDS011;42891;50.006;21.964;2024-02-23T01:06:42;9.13;;;6.32;;
56999;SDS011;42891;50.006;21.964;2024-02-23T01:10:42;7.37;;;5.90;;
56999;SDS011;42891;50.006;21.964;2024-02-23T01:14:42;6.78;;;5.63;;
56999;SDS011;42891;50.006;21.964;2024-02-23T01:18:43;8.43;;;5.70;;
56999;SDS011;42891;50.006;21.964;2024-02-23T01:22:43;8.48;;;5.93;;
56999;SDS011;42891;50.006;21.964;2024-02-23T01:26:44;6.88;;;5.55;;
56999;SDS011;42891;50.006;21.964;2024-02-23T01:30:44;7.43;;;6.00;;
56999;SDS011;42891;50.006;21.964;2024-02-23T01:34:44;7.97;;;6.00;;
56999;SDS011;42891;50.006;21.964;2024-02-23T01:38:44;8.63;;;5.80;;
56999;SDS011;42891;50.006;21.964;2024-02-23T01:42:45;7.53;;;5.60;;
56999;SDS011;42891;50.006;21.964;2024-02-23T01:46:45;6.17;;;5.00;;
56999;SDS011;42891;50.006;21.964;2024-02-23T01:50:45;8.23;;;5.47;;
56999;SDS011;42891;50.006;21.964;2024-02-23T01:54:46;7.68;;;5.72;;
56999;SDS011;42891;50.006;21.964;2024-02-23T01:58:46;6.10;;;4.73;;
56999;SDS011;42891;50.006;21.964;2024-02-23T02:02:47;6.32;;;5.65;;
56999;SDS011;42891;50.006;21.964;2024-02-23T02:06:48;7.35;;;5.70;;
56999;SDS011;42891;50.006;21.964;2024-02-23T02:10:49;7.03;;;4.93;;
56999;SDS011;42891;50.006;21.964;2024-02-23T02:14:49;6.10;;;5.00;;
56999;SDS011;42891;50.006;21.964;2024-02-23T02:18:50;6.63;;;5.10;;
56999;SDS011;42891;50.006;21.964;2024-02-23T02:22:50;6.80;;;5.15;;
56999;SDS011;42891;50.006;21.964;2024-02-23T02:26:50;6.57;;;4.88;;
56999;SDS011;42891;50.006;21.964;2024-02-23T02:30:52;7.43;;;5.00;;
56999;SDS011;42891;50.006;21.964;2024-02-23T02:34:52;7.10;;;4.90;;
56999;SDS011;42891;50.006;21.964;2024-02-23T02:38:53;6.43;;;5.03;;
56999;SDS011;42891;50.006;21.964;2024-02-23T02:42:53;6.33;;;4.40;;
56999;SDS011;42891;50.006;21.964;2024-02-23T02:46:53;6.78;;;4.85;;
56999;SDS011;42891;50.006;21.964;2024-02-23T02:50:53;6.10;;;4.80;;
56999;SDS011;42891;50.006;21.964;2024-02-23T02:54:54;7.05;;;5.00;;
56999;SDS011;42891;50.006;21.964;2024-02-23T02:58:55;7.43;;;4.57;;
56999;SDS011;42891;50.006;21.964;2024-02-23T03:02:56;7.40;;;4.57;;
56999;SDS011;42891;50.006;21.964;2024-02-23T03:06:56;5.88;;;4.13;;
56999;SDS011;42891;50.006;21.964;2024-02-23T03:10:56;4.70;;;4.03;;
56999;SDS011;42891;50.006;21.964;2024-02-23T03:14:57;5.20;;;4.20;;
56999;SDS011;42891;50.006;21.964;2024-02-23T03:18:57;4.43;;;3.75;;
56999;SDS011;42891;50.006;21.964;2024-02-23T03:22:58;6.07;;;4.55;;
56999;SDS011;42891;50.006;21.964;2024-02-23T03:26:58;6.05;;;4.25;;
56999;SDS011;42891;50.006;21.964;2024-02-23T03:30:59;5.50;;;4.10;;
56999;SDS011;42891;50.006;21.964;2024-02-23T03:35:00;4.32;;;3.92;;
56999;SDS011;42891;50.006;21.964;2024-02-23T03:39:00;4.73;;;3.90;;
56999;SDS011;42891;50.006;21.964;2024-02-23T03:43:01;9.57;;;4.07;;
56999;SDS011;42891;50.006;21.964;2024-02-23T03:47:02;6.43;;;4.03;;
56999;SDS011;42891;50.006;21.964;2024-02-23T03:51:03;4.67;;;3.87;;
56999;SDS011;42891;50.006;21.964;2024-02-23T03:55:05;5.40;;;4.00;;
56999;SDS011;42891;50.006;21.964;2024-02-23T03:59:05;5.13;;;3.75;;
56999;SDS011;42891;50.006;21.964;2024-02-23T04:03:09;5.30;;;3.58;;
56999;SDS011;42891;50.006;21.964;2024-02-23T04:07:09;4.30;;;3.78;;
56999;SDS011;42891;50.006;21.964;2024-02-23T04:11:12;7.67;;;4.13;;
56999;SDS011;42891;50.006;21.964;2024-02-23T04:15:12;4.63;;;4.03;;
56999;SDS011;42891;50.006;21.964;2024-02-23T04:19:13;5.53;;;3.70;;
56999;SDS011;42891;50.006;21.964;2024-02-23T04:23:14;6.65;;;4.43;;
56999;SDS011;42891;50.006;21.964;2024-02-23T04:27:14;5.13;;;4.53;;
56999;SDS011;42891;50.006;21.964;2024-02-23T04:31:14;5.03;;;4.15;;
56999;SDS011;42891;50.006;21.964;2024-02-23T04:35:15;5.30;;;4.25;;
56999;SDS011;42891;50.006;21.964;2024-02-23T04:39:15;5.20;;;4.38;;
56999;SDS011;42891;50.006;21.964;2024-02-23T04:43:15;6.53;;;4.50;;
56999;SDS011;42891;50.006;21.964;2024-02-23T04:47:16;5.27;;;4.00;;
56999;SDS011;42891;50.006;21.964;2024-02-23T04:51:16;7.38;;;4.22;;
56999;SDS011;42891;50.006;21.964;2024-02-23T04:55:16;5.87;;;4.60;;
56999;SDS011;42891;50.006;21.964;2024-02-23T04:59:17;5.20;;;4.30;;
56999;SDS011;42891;50.006;21.964;2024-02-23T05:03:17;5.47;;;4.50;;
56999;SDS011;42891;50.006;21.964;2024-02-23T05:07:17;5.20;;;4.35;;
56999;SDS011;42891;50.006;21.964;2024-02-23T05:11:17;5.75;;;4.53;;
56999;SDS011;42891;50.006;21.964;2024-02-23T05:15:18;6.10;;;4.13;;
56999;SDS011;42891;50.006;21.964;2024-02-23T05:19:18;8.20;;;4.60;;
56999;SDS011;42891;50.006;21.964;2024-02-23T05:23:18;5.35;;;3.97;;
56999;SDS011;42891;50.006;21.964;2024-02-23T05:27:19;6.37;;;4.50;;
56999;SDS011;42891;50.006;21.964;2024-02-23T05:31:19;6.13;;;5.13;;
56999;SDS011;42891;50.006;21.964;2024-02-23T05:35:19;7.15;;;5.10;;
56999;SDS011;42891;50.006;21.964;2024-02-23T05:39:20;5.97;;;4.87;;
56999;SDS011;42891;50.006;21.964;2024-02-23T05:43:20;7.95;;;5.18;;
56999;SDS011;42891;50.006;21.964;2024-02-23T05:47:20;6.50;;;4.97;;
56999;SDS011;42891;50.006;21.964;2024-02-23T05:51:21;7.88;;;4.97;;
56999;SDS011;42891;50.006;21.964;2024-02-23T05:55:21;6.97;;;4.97;;
56999;SDS011;42891;50.006;21.964;2024-02-23T05:59:22;5.70;;;4.70;;
56999;SDS011;42891;50.006;21.964;2024-02-23T06:03:22;6.90;;;5.03;;
56999;SDS011;42891;50.006;21.964;2024-02-23T06:07:22;5.63;;;5.10;;
56999;SDS011;42891;50.006;21.964;2024-02-23T06:11:28;6.03;;;5.05;;
56999;SDS011;42891;50.006;21.964;2024-02-23T06:15:29;6.38;;;5.13;;
56999;SDS011;42891;50.006;21.964;2024-02-23T06:19:30;7.55;;;4.75;;
56999;SDS011;42891;50.006;21.964;2024-02-23T06:23:31;6.78;;;4.85;;
56999;SDS011;42891;50.006;21.964;2024-02-23T06:27:31;6.53;;;5.40;;
56999;SDS011;42891;50.006;21.964;2024-02-23T06:31:31;6.10;;;4.80;;
56999;SDS011;42891;50.006;21.964;2024-02-23T06:35:34;6.53;;;4.95;;
56999;SDS011;42891;50.006;21.964;2024-02-23T06:39:34;6.27;;;4.90;;
56999;SDS011;42891;50.006;21.964;2024-02-23T06:43:35;6.22;;;5.03;;
56999;SDS011;42891;50.006;21.964;2024-02-23T06:47:35;5.93;;;4.78;;
56999;SDS011;42891;50.006;21.964;2024-02-23T06:51:36;6.73;;;5.10;;
56999;SDS011;42891;50.006;21.964;2024-02-23T06:55:36;7.22;;;5.90;;
56999;SDS011;42891;50.006;21.964;2024-02-23T06:59:36;6.00;;;4.70;;
56999;SDS011;42891;50.006;21.964;2024-02-23T07:03:36;6.28;;;4.75;;
56999;SDS011;42891;50.006;21.964;2024-02-23T07:07:37;8.23;;;5.68;;
56999;SDS011;42891;50.006;21.964;2024-02-23T07:11:40;7.90;;;6.00;;
56999;SDS011;42891;50.006;21.964;2024-02-23T07:15:43;6.70;;;5.40;;
56999;SDS011;42891;50.006;21.964;2024-02-23T07:19:43;9.90;;;8.90;;
56999;SDS011;42891;50.006;21.964;2024-02-23T07:23:44;13.88;;;10.85;;
56999;SDS011;42891;50.006;21.964;2024-02-23T07:27:44;11.63;;;9.20;;
56999;SDS011;42891;50.006;21.964;2024-02-23T07:31:45;11.15;;;6.95;;
56999;SDS011;42891;50.006;21.964;2024-02-23T07:35:45;10.23;;;7.27;;
56999;SDS011;42891;50.006;21.964;2024-02-23T07:39:45;9.17;;;6.73;;
56999;SDS011;42891;50.006;21.964;2024-02-23T07:43:45;9.07;;;6.40;;
56999;SDS011;42891;50.006;21.964;2024-02-23T07:47:46;7.60;;;5.82;;
56999;SDS011;42891;50.006;21.964;2024-02-23T07:51:46;6.75;;;5.45;;
56999;SDS011;42891;50.006;21.964;2024-02-23T07:55:46;9.47;;;6.40;;
56999;SDS011;42891;50.006;21.964;2024-02-23T07:59:47;8.23;;;6.37;;
56999;SDS011;42891;50.006;21.964;2024-02-23T08:03:48;7.38;;;6.28;;
56999;SDS011;42891;50.006;21.964;2024-02-23T08:07:49;8.82;;;6.45;;
56999;SDS011;42891;50.006;21.964;2024-02-23T08:11:49;8.27;;;6.18;;
56999;SDS011;42891;50.006;21.964;2024-02-23T08:15:49;6.93;;;6.15;;
56999;SDS011;42891;50.006;21.964;2024-02-23T08:19:50;7.13;;;5.53;;
56999;SDS011;42891;50.006;21.964;2024-02-23T08:23:50;7.30;;;5.78;;
56999;SDS011;42891;50.006;21.964;2024-02-23T08:27:51;6.20;;;5.60;;
56999;SDS011;42891;50.006;21.964;2024-02-23T08:31:51;7.50;;;6.25;;
56999;SDS011;42891;50.006;21.964;2024-02-23T08:35:51;7.57;;;6.10;;
56999;SDS011;42891;50.006;21.964;2024-02-23T08:39:52;6.72;;;5.90;;
56999;SDS011;42891;50.006;21.964;2024-02-23T08:43:53;7.30;;;5.90;;
56999;SDS011;42891;50.006;21.964;2024-02-23T08:47:54;6.60;;;5.43;;
56999;SDS011;42891;50.006;21.964;2024-02-23T08:51:55;5.88;;;5.28;;
56999;SDS011;42891;50.006;21.964;2024-02-23T08:55:56;5.20;;;4.68;;
56999;SDS011;42891;50.006;21.964;2024-02-23T08:59:57;6.03;;;5.43;;
56999;SDS011;42891;50.006;21.964;2024-02-23T09:03:58;5.43;;;4.88;;
56999;SDS011;42891;50.006;21.964;2024-02-23T09:07:58;5.55;;;5.03;;
56999;SDS011;42891;50.006;21.964;2024-02-23T09:11:58;5.17;;;4.67;;
56999;SDS011;42891;50.006;21.964;2024-02-23T09:15:59;7.00;;;5.50;;
56999;SDS011;42891;50.006;21.964;2024-02-23T09:19:59;6.72;;;5.45;;
56999;SDS011;42891;50.006;21.964;2024-02-23T09:23:59;5.53;;;4.93;;
56999;SDS011;42891;50.006;21.964;2024-02-23T09:28:00;5.78;;;5.22;;
56999;SDS011;42891;50.006;21.964;2024-02-23T09:32:00;4.70;;;4.30;;
56999;SDS011;42891;50.006;21.964;2024-02-23T09:36:01;4.65;;;4.15;;
56999;SDS011;42891;50.006;21.964;2024-02-23T09:40:01;6.47;;;4.50;;
56999;SDS011;42891;50.006;21.964;2024-02-23T09:44:01;4.57;;;4.13;;
56999;SDS011;42891;50.006;21.964;2024-02-23T09:48:02;5.57;;;3.90;;
56999;SDS011;42891;50.006;21.964;2024-02-23T09:52:05;3.90;;;3.55;;
56999;SDS011;42891;50.006;21.964;2024-02-23T09:56:08;4.75;;;4.10;;
56999;SDS011;42891;50.006;21.964;2024-02-23T10:00:09;4.60;;;4.03;;
56999;SDS011;42891;50.006;21.964;2024-02-23T10:04:11;5.97;;;4.50;;
56999;SDS011;42891;50.006;21.964;2024-02-23T10:08:11;3.83;;;3.50;;
56999;SDS011;42891;50.006;21.964;2024-02-23T10:12:12;4.20;;;3.80;;
56999;SDS011;42891;50.006;21.964;2024-02-23T10:16:16;4.82;;;4.03;;
56999;SDS011;42891;50.006;21.964;2024-02-23T10:20:16;4.07;;;3.67;;
56999;SDS011;42891;50.006;21.964;2024-02-23T10:24:17;4.00;;;3.65;;
56999;SDS011;42891;50.006;21.964;2024-02-23T10:28:17;5.15;;;4.28;;
56999;SDS011;42891;50.006;21.964;2024-02-23T10:32:22;4.38;;;3.97;;
56999;SDS011;42891;50.006;21.964;2024-02-23T10:36:23;3.45;;;3.15;;
56999;SDS011;42891;50.006;21.964;2024-02-23T10:40:27;4.38;;;3.97;;
56999;SDS011;42891;50.006;21.964;2024-02-23T10:44:31;4.63;;;3.90;;
56999;SDS011;42891;50.006;21.964;2024-02-23T10:48:31;4.80;;;4.30;;
56999;SDS011;42891;50.006;21.964;2024-02-23T10:52:33;6.15;;;4.75;;
56999;SDS011;42891;50.006;21.964;2024-02-23T10:56:34;4.50;;;4.10;;
56999;SDS011;42891;50.006;21.964;2024-02-23T11:00:35;5.00;;;4.50;;
56999;SDS011;42891;50.006;21.964;2024-02-23T11:04:37;4.65;;;4.25;;
56999;SDS011;42891;50.006;21.964;2024-02-23T11:08:38;4.68;;;4.28;;
56999;SDS011;42891;50.006;21.964;2024-02-23T11:12:38;4.75;;;4.25;;
56999;SDS011;42891;50.006;21.964;2024-02-23T11:16:39;5.03;;;4.57;;
56999;SDS011;42891;50.006;21.964;2024-02-23T11:20:41;5.35;;;4.85;;
56999;SDS011;42891;50.006;21.964;2024-02-23T11:24:43;6.25;;;5.05;;
56999;SDS011;42891;50.006;21.964;2024-02-23T11:28:48;6.90;;;5.20;;
56999;SDS011;42891;50.006;21.964;2024-02-23T11:32:50;5.10;;;4.57;;
56999;SDS011;42891;50.006;21.964;2024-02-23T11:36:54;6.57;;;4.88;;
56999;SDS011;42891;50.006;21.964;2024-02-23T11:40:54;4.72;;;4.20;;
56999;SDS011;42891;50.006;21.964;2024-02-23T11:44:55;4.55;;;4.00;;
56999;SDS011;42891;50.006;21.964;2024-02-23T11:48:56;5.13;;;4.20;;
56999;SDS011;42891;50.006;21.964;2024-02-23T11:52:56;6.05;;;5.07;;
56999;SDS011;42891;50.006;21.964;2024-02-23T11:56:57;5.38;;;4.18;;
56999;SDS011;42891;50.006;21.964;2024-02-23T12:00:57;8.18;;;5.93;;
56999;SDS011;42891;50.006;21.964;2024-02-23T12:05:00;9.40;;;5.93;;
56999;SDS011;42891;50.006;21.964;2024-02-23T12:09:01;12.40;;;7.50;;
56999;SDS011;42891;50.006;21.964;2024-02-23T12:13:01;7.22;;;5.43;;
56999;SDS011;42891;50.006;21.964;2024-02-23T12:17:03;8.40;;;5.47;;
56999;SDS011;42891;50.006;21.964;2024-02-23T12:21:04;21.40;;;13.38;;
56999;SDS011;42891;50.006;21.964;2024-02-23T12:25:06;18.67;;;10.82;;
56999;SDS011;42891;50.006;21.964;2024-02-23T12:29:06;12.38;;;7.32;;
56999;SDS011;42891;50.006;21.964;2024-02-23T12:33:07;28.58;;;15.40;;
56999;SDS011;42891;50.006;21.964;2024-02-23T12:37:07;30.33;;;16.65;;
56999;SDS011;42891;50.006;21.964;2024-02-23T12:41:08;8.10;;;4.55;;
56999;SDS011;42891;50.006;21.964;2024-02-23T12:45:09;26.08;;;16.75;;
56999;SDS011;42891;50.006;21.964;2024-02-23T12:49:09;6.65;;;5.05;;
56999;SDS011;42891;50.006;21.964;2024-02-23T12:53:11;6.80;;;5.40;;
56999;SDS011;42891;50.006;21.964;2024-02-23T12:57:33;15.98;;;10.32;;
56999;SDS011;42891;50.006;21.964;2024-02-23T13:01:34;29.30;;;18.23;;
56999;SDS011;42891;50.006;21.964;2024-02-23T13:05:36;8.55;;;5.53;;
56999;SDS011;42891;50.006;21.964;2024-02-23T13:09:37;8.60;;;6.22;;
56999;SDS011;42891;50.006;21.964;2024-02-23T13:13:37;6.90;;;5.20;;
56999;SDS011;42891;50.006;21.964;2024-02-23T13:17:37;6.67;;;4.70;;
56999;SDS011;42891;50.006;21.964;2024-02-23T13:21:38;7.33;;;5.43;;
56999;SDS011;42891;50.006;21.964;2024-02-23T13:25:39;8.50;;;4.40;;
56999;SDS011;42891;50.006;21.964;2024-02-23T13:29:40;6.20;;;4.43;;
56999;SDS011;42891;50.006;21.964;2024-02-23T13:33:40;6.37;;;5.00;;
56999;SDS011;42891;50.006;21.964;2024-02-23T13:37:42;5.78;;;4.75;;
56999;SDS011;42891;50.006;21.964;2024-02-23T13:41:43;4.80;;;4.15;;
56999;SDS011;42891;50.006;21.964;2024-02-23T13:45:48;8.25;;;5.00;;
56999;SDS011;42891;50.006;21.964;2024-02-23T13:49:50;5.95;;;5.00;;
56999;SDS011;42891;50.006;21.964;2024-02-23T13:53:51;6.67;;;5.33;;
56999;SDS011;42891;50.006;21.964;2024-02-23T13:57:51;7.50;;;6.30;;
56999;SDS011;42891;50.006;21.964;2024-02-23T14:01:51;7.53;;;5.57;;
56999;SDS011;42891;50.006;21.964;2024-02-23T14:05:53;7.88;;;5.68;;
56999;SDS011;42891;50.006;21.964;2024-02-23T14:09:53;11.03;;;6.50;;
56999;SDS011;42891;50.006;21.964;2024-02-23T14:13:53;16.03;;;10.33;;
56999;SDS011;42891;50.006;21.964;2024-02-23T14:17:54;15.07;;;11.65;;
56999;SDS011;42891;50.006;21.964;2024-02-23T14:21:54;10.13;;;7.18;;
56999;SDS011;42891;50.006;21.964;2024-02-23T14:25:55;10.00;;;7.15;;
56999;SDS011;42891;50.006;21.964;2024-02-23T14:29:55;7.87;;;5.87;;
56999;SDS011;42891;50.006;21.964;2024-02-23T14:33:56;7.40;;;5.95;;
56999;SDS011;42891;50.006;21.964;2024-02-23T14:37:56;10.73;;;6.75;;
56999;SDS011;42891;50.006;21.964;2024-02-23T14:41:57;7.83;;;5.97;;
56999;SDS011;42891;50.006;21.964;2024-02-23T14:45:57;8.73;;;6.88;;
56999;SDS011;42891;50.006;21.964;2024-02-23T14:49:58;10.18;;;6.93;;
56999;SDS011;42891;50.006;21.964;2024-02-23T14:53:58;9.30;;;6.53;;
56999;SDS011;42891;50.006;21.964;2024-02-23T14:57:58;9.33;;;6.17;;
56999;SDS011;42891;50.006;21.964;2024-02-23T15:01:58;9.87;;;7.30;;
56999;SDS011;42891;50.006;21.964;2024-02-23T15:05:59;11.10;;;7.27;;
56999;SDS011;42891;50.006;21.964;2024-02-23T15:10:01;10.38;;;7.10;;
56999;SDS011;42891;50.006;21.964;2024-02-23T15:14:05;10.95;;;8.13;;
56999;SDS011;42891;50.006;21.964;2024-02-23T15:18:06;35.45;;;20.15;;
56999;SDS011;42891;50.006;21.964;2024-02-23T15:22:07;19.60;;;10.82;;
56999;SDS011;42891;50.006;21.964;2024-02-23T15:26:09;18.77;;;12.88;;
56999;SDS011;42891;50.006;21.964;2024-02-23T15:30:09;12.97;;;8.43;;
56999;SDS011;42891;50.006;21.964;2024-02-23T15:34:10;9.63;;;8.05;;
56999;SDS011;42891;50.006;21.964;2024-02-23T15:38:11;12.63;;;9.45;;
56999;SDS011;42891;50.006;21.964;2024-02-23T15:42:11;15.90;;;10.93;;
56999;SDS011;42891;50.006;21.964;2024-02-23T15:46:13;20.55;;;16.15;;
56999;SDS011;42891;50.006;21.964;2024-02-23T15:50:13;19.90;;;12.53;;
56999;SDS011;42891;50.006;21.964;2024-02-23T15:54:14;17.27;;;10.98;;
56999;SDS011;42891;50.006;21.964;2024-02-23T15:58:14;13.93;;;10.30;;
56999;SDS011;42891;50.006;21.964;2024-02-23T16:02:16;17.13;;;12.50;;
56999;SDS011;42891;50.006;21.964;2024-02-23T16:06:16;14.23;;;11.73;;
56999;SDS011;42891;50.006;21.964;2024-02-23T16:10:17;15.75;;;11.35;;
56999;SDS011;42891;50.006;21.964;2024-02-23T16:14:18;9.45;;;7.75;;
56999;SDS011;42891;50.006;21.964;2024-02-23T16:18:18;18.13;;;13.82;;
56999;SDS011;42891;50.006;21.964;2024-02-23T16:22:18;13.30;;;10.10;;
56999;SDS011;42891;50.006;21.964;2024-02-23T16:26:19;12.50;;;9.27;;
56999;SDS011;42891;50.006;21.964;2024-02-23T16:30:19;13.37;;;9.87;;
56999;SDS011;42891;50.006;21.964;2024-02-23T16:34:19;17.77;;;11.77;;
56999;SDS011;42891;50.006;21.964;2024-02-23T16:38:19;16.73;;;9.57;;
56999;SDS011;42891;50.006;21.964;2024-02-23T16:42:21;28.83;;;17.95;;
56999;SDS011;42891;50.006;21.964;2024-02-23T16:46:21;20.67;;;14.60;;
56999;SDS011;42891;50.006;21.964;2024-02-23T16:50:21;15.25;;;11.05;;
56999;SDS011;42891;50.006;21.964;2024-02-23T16:54:21;14.13;;;11.03;;
56999;SDS011;42891;50.006;21.964;2024-02-23T16:58:22;12.60;;;9.65;;
56999;SDS011;42891;50.006;21.964;2024-02-23T17:02:24;16.23;;;11.15;;
56999;SDS011;42891;50.006;21.964;2024-02-23T17:06:25;15.60;;;10.60;;
56999;SDS011;42891;50.006;21.964;2024-02-23T17:10:25;15.13;;;9.70;;
56999;SDS011;42891;50.006;21.964;2024-02-23T17:14:25;15.55;;;10.50;;
56999;SDS011;42891;50.006;21.964;2024-02-23T17:18:26;37.75;;;21.23;;
56999;SDS011;42891;50.006;21.964;2024-02-23T17:22:27;14.50;;;10.13;;
56999;SDS011;42891;50.006;21.964;2024-02-23T17:26:28;18.67;;;12.23;;
56999;SDS011;42891;50.006;21.964;2024-02-23T17:30:28;19.83;;;12.97;;
56999;SDS011;42891;50.006;21.964;2024-02-23T17:34:29;14.67;;;10.47;;
56999;SDS011;42891;50.006;21.964;2024-02-23T17:38:29;13.50;;;9.70;;
56999;SDS011;42891;50.006;21.964;2024-02-23T17:42:29;17.20;;;12.10;;
56999;SDS011;42891;50.006;21.964;2024-02-23T17:46:30;27.23;;;17.07;;
56999;SDS011;42891;50.006;21.964;2024-02-23T17:50:30;23.38;;;12.68;;
56999;SDS011;42891;50.006;21.964;2024-02-23T17:54:31;16.25;;;10.10;;
56999;SDS011;42891;50.006;21.964;2024-02-23T17:58:32;17.43;;;10.30;;
56999;SDS011;42891;50.006;21.964;2024-02-23T18:02:35;12.55;;;9.90;;
56999;SDS011;42891;50.006;21.964;2024-02-23T18:06:35;18.07;;;11.43;;
56999;SDS011;42891;50.006;21.964;2024-02-23T18:10:36;21.53;;;15.07;;
56999;SDS011;42891;50.006;21.964;2024-02-23T18:14:37;16.10;;;11.00;;
56999;SDS011;42891;50.006;21.964;2024-02-23T18:18:38;29.23;;;17.53;;
56999;SDS011;42891;50.006;21.964;2024-02-23T18:22:39;24.50;;;14.67;;
56999;SDS011;42891;50.006;21.964;2024-02-23T18:26:39;17.45;;;11.90;;
56999;SDS011;42891;50.006;21.964;2024-02-23T18:30:39;13.13;;;9.50;;
56999;SDS011;42891;50.006;21.964;2024-02-23T18:34:40;20.40;;;13.32;;
56999;SDS011;42891;50.006;21.964;2024-02-23T18:38:40;14.57;;;10.10;;
56999;SDS011;42891;50.006;21.964;2024-02-23T18:42:41;17.58;;;12.48;;
56999;SDS011;42891;50.006;21.964;2024-02-23T18:46:42;16.40;;;12.32;;
56999;SDS011;42891;50.006;21.964;2024-02-23T18:50:42;21.03;;;15.30;;
56999;SDS011;42891;50.006;21.964;2024-02-23T18:54:42;12.68;;;10.60;;
56999;SDS011;42891;50.006;21.964;2024-02-23T18:58:43;18.60;;;12.15;;
56999;SDS011;42891;50.006;21.964;2024-02-23T19:02:43;17.13;;;12.82;;
56999;SDS011;42891;50.006;21.964;2024-02-23T19:06:43;14.23;;;10.83;;
56999;SDS011;42891;50.006;21.964;2024-02-23T19:10:44;22.13;;;15.02;;
56999;SDS011;42891;50.006;21.964;2024-02-23T19:14:44;14.83;;;10.93;;
56999;SDS011;42891;50.006;21.964;2024-02-23T19:18:45;36.15;;;23.92;;
56999;SDS011;42891;50.006;21.964;2024-02-23T19:22:45;62.83;;;32.95;;
56999;SDS011;42891;50.006;21.964;2024-02-23T19:26:45;16.85;;;10.38;;
56999;SDS011;42891;50.006;21.964;2024-02-23T19:30:46;20.08;;;12.05;;
56999;SDS011;42891;50.006;21.964;2024-02-23T19:34:47;10.75;;;8.82;;
56999;SDS011;42891;50.006;21.964;2024-02-23T19:38:47;12.90;;;8.57;;
56999;SDS011;42891;50.006;21.964;2024-02-23T19:42:49;87.97;;;48.85;;
56999;SDS011;42891;50.006;21.964;2024-02-23T19:46:51;25.00;;;18.40;;
56999;SDS011;42891;50.006;21.964;2024-02-23T19:50:51;19.97;;;15.47;;
56999;SDS011;42891;50.006;21.964;2024-02-23T19:54:51;21.53;;;15.53;;
56999;SDS011;42891;50.006;21.964;2024-02-23T19:58:51;16.03;;;11.97;;
56999;SDS011;42891;50.006;21.964;2024-02-23T20:02:52;19.95;;;15.82;;
56999;SDS011;42891;50.006;21.964;2024-02-23T20:06:52;17.50;;;13.83;;
56999;SDS011;42891;50.006;21.964;2024-02-23T20:10:54;15.18;;;12.10;;
56999;SDS011;42891;50.006;21.964;2024-02-23T20:14:55;12.35;;;9.93;;
56999;SDS011;42891;50.006;21.964;2024-02-23T20:18:56;15.30;;;11.60;;
56999;SDS011;42891;50.006;21.964;2024-02-23T20:22:56;13.30;;;10.30;;
56999;SDS011;42891;50.006;21.964;2024-02-23T20:26:57;16.27;;;12.27;;
56999;SDS011;42891;50.006;21.964;2024-02-23T20:31:00;14.23;;;11.20;;
56999;SDS011;42891;50.006;21.964;2024-02-23T20:35:05;17.63;;;13.95;;
56999;SDS011;42891;50.006;21.964;2024-02-23T20:39:09;16.15;;;12.40;;
56999;SDS011;42891;50.006;21.964;2024-02-23T20:43:10;19.98;;;14.70;;
56999;SDS011;42891;50.006;21.964;2024-02-23T20:47:10;25.10;;;18.07;;
56999;SDS011;42891;50.006;21.964;2024-02-23T20:51:11;17.58;;;13.30;;
56999;SDS011;42891;50.006;21.964;2024-02-23T20:55:11;16.17;;;13.38;;
56999;SDS011;42891;50.006;21.964;2024-02-23T20:59:12;13.63;;;11.43;;
56999;SDS011;42891;50.006;21.964;2024-02-23T21:03:13;17.20;;;13.05;;
56999;SDS011;42891;50.006;21.964;2024-02-23T21:07:13;17.57;;;12.73;;
56999;SDS011;42891;50.006;21.964;2024-02-23T21:11:16;16.38;;;12.45;;
56999;SDS011;42891;50.006;21.964;2024-02-23T21:15:17;16.48;;;11.63;;
56999;SDS011;42891;50.006;21.964;2024-02-23T21:19:17;18.02;;;11.98;;
56999;SDS011;42891;50.006;21.964;2024-02-23T21:23:18;16.50;;;11.20;;
56999;SDS011;42891;50.006;21.964;2024-02-23T21:27:18;14.40;;;10.95;;
56999;SDS011;42891;50.006;21.964;2024-02-23T21:31:19;14.87;;;11.10;;
56999;SDS011;42891;50.006;21.964;2024-02-23T21:35:19;12.83;;;10.30;;
56999;SDS011;42891;50.006;21.964;2024-02-23T21:39:20;14.55;;;10.10;;
56999;SDS011;42891;50.006;21.964;2024-02-23T21:43:21;16.17;;;11.50;;
56999;SDS011;42891;50.006;21.964;2024-02-23T21:47:21;14.85;;;9.98;;
56999;SDS011;42891;50.006;21.964;2024-02-23T21:51:21;15.30;;;10.17;;
56999;SDS011;42891;50.006;21.964;2024-02-23T21:55:21;14.67;;;10.37;;
56999;SDS011;42891;50.006;21.964;2024-02-23T21:59:23;16.95;;;10.10;;
56999;SDS011;42891;50.006;21.964;2024-02-23T22:03:25;14.82;;;10.15;;
56999;SDS011;42891;50.006;21.964;2024-02-23T22:07:27;14.90;;;9.73;;
56999;SDS011;42891;50.006;21.964;2024-02-23T22:11:27;11.80;;;8.90;;
56999;SDS011;42891;50.006;21.964;2024-02-23T22:15:28;14.90;;;9.00;;
56999;SDS011;42891;50.006;21.964;2024-02-23T22:19:28;12.80;;;9.80;;
56999;SDS011;42891;50.006;21.964;2024-02-23T22:23:28;14.97;;;10.20;;
56999;SDS011;42891;50.006;21.964;2024-02-23T22:27:29;13.30;;;10.07;;
56999;SDS011;42891;50.006;21.964;2024-02-23T22:31:29;12.07;;;9.30;;
56999;SDS011;42891;50.006;21.964;2024-02-23T22:35:30;12.18;;;9.00;;
56999;SDS011;42891;50.006;21.964;2024-02-23T22:39:30;12.93;;;9.83;;
56999;SDS011;42891;50.006;21.964;2024-02-23T22:43:30;11.83;;;9.10;;
56999;SDS011;42891;50.006;21.964;2024-02-23T22:47:30;15.25;;;10.07;;
56999;SDS011;42891;50.006;21.964;2024-02-23T22:51:31;11.98;;;8.48;;
56999;SDS011;42891;50.006;21.964;2024-02-23T22:55:32;13.85;;;9.13;;
56999;SDS011;42891;50.006;21.964;2024-02-23T22:59:32;16.30;;;10.00;;
56999;SDS011;42891;50.006;21.964;2024-02-23T23:03:33;15.38;;;10.10;;
56999;SDS011;42891;50.006;21.964;2024-02-23T23:07:33;12.40;;;9.57;;
56999;SDS011;42891;50.006;21.964;2024-02-23T23:11:35;12.00;;;8.68;;
56999;SDS011;42891;50.006;21.964;2024-02-23T23:15:36;12.68;;;8.55;;
56999;SDS011;42891;50.006;21.964;2024-02-23T23:19:36;11.33;;;7.47;;
56999;SDS011;42891;50.006;21.964;2024-02-23T23:23:36;10.73;;;8.27;;
56999;SDS011;42891;50.006;21.964;2024-02-23T23:27:37;11.15;;;8.02;;
56999;SDS011;42891;50.006;21.964;2024-02-23T23:31:37;13.53;;;8.80;;
56999;SDS011;42891;50.006;21.964;2024-02-23T23:35:37;12.57;;;8.43;;